createdAt,value
2022-12-15T00:02:38.502Z,16.57
2022-12-15T00:05:23.679Z,16.27
2022-12-15T00:08:08.083Z,16.33
2022-12-15T00:10:52.987Z,16.40
2022-12-15T00:13:38.302Z,16.03
2022-12-15T00:16:23.675Z,16.07
2022-12-15T00:19:08.168Z,16.23
2022-12-15T00:21:53.064Z,16.40
2022-12-15T00:24:37.456Z,15.57
2022-12-15T00:27:22.079Z,16.10
2022-12-15T00:30:07.413Z,16.00
2022-12-15T00:32:51.707Z,16.13
2022-12-15T00:35:36.596Z,16.60
2022-12-15T00:38:24.987Z,17.30
2022-12-15T00:40:51.195Z,17.07
2022-12-15T00:43:17.320Z,15.97
2022-12-15T00:46:02.748Z,16.43
2022-12-15T00:48:28.920Z,15.50
2022-12-15T00:50:54.805Z,15.43
2022-12-15T00:53:40.738Z,16.83
2022-12-15T00:56:26.118Z,15.63
2022-12-15T00:59:10.980Z,15.33
2022-12-15T01:01:56.819Z,16.03
2022-12-15T01:04:41.732Z,15.97
2022-12-15T01:07:26.003Z,16.50
2022-12-15T01:10:10.452Z,16.73
2022-12-15T01:12:54.819Z,16.13
2022-12-15T01:15:39.358Z,16.40
2022-12-15T01:18:24.411Z,15.70
2022-12-15T01:20:55.022Z,15.33
2022-12-15T01:23:21.144Z,16.70
2022-12-15T01:25:47.240Z,16.87
2022-12-15T01:28:15.889Z,15.43
2022-12-15T01:30:42.017Z,17.33
2022-12-15T01:33:08.795Z,16.60
2022-12-15T01:35:34.911Z,16.87
2022-12-15T01:38:01.021Z,18.23
2022-12-15T01:40:45.469Z,16.53
2022-12-15T01:43:13.047Z,17.03
2022-12-15T01:45:55.092Z,17.23
2022-12-15T01:48:29.413Z,17.37
2022-12-15T01:51:01.016Z,17.63
2022-12-15T01:53:28.752Z,18.40
2022-12-15T01:55:56.256Z,18.67
2022-12-15T01:58:22.747Z,19.07
2022-12-15T02:00:49.097Z,18.17
2022-12-15T02:03:15.566Z,19.40
2022-12-15T02:05:42.372Z,18.00
2022-12-15T02:08:08.862Z,19.07
2022-12-15T02:10:45.505Z,17.73
2022-12-15T02:13:15.972Z,16.57
2022-12-15T02:15:48.599Z,17.50
2022-12-15T02:18:21.180Z,17.97
2022-12-15T02:20:52.141Z,17.23
2022-12-15T02:23:34.187Z,17.07
2022-12-15T02:26:16.035Z,18.00
2022-12-15T02:28:52.225Z,18.63
2022-12-15T02:31:39.826Z,17.17
2022-12-15T02:34:10.909Z,17.97
2022-12-15T02:36:39.201Z,18.13
2022-12-15T02:39:05.483Z,17.90
2022-12-15T02:41:35.214Z,17.77
2022-12-15T02:44:02.114Z,17.73
2022-12-15T02:46:32.897Z,18.80
2022-12-15T02:49:04.568Z,19.03
2022-12-15T02:51:42.674Z,17.93
2022-12-15T02:54:38.349Z,18.63
2022-12-15T02:57:10.516Z,19.60
2022-12-15T02:59:40.467Z,17.90
2022-12-15T03:02:08.703Z,18.07
2022-12-15T03:04:35.025Z,18.77
2022-12-15T03:07:04.904Z,19.33
2022-12-15T03:09:31.679Z,17.30
2022-12-15T03:11:57.864Z,18.60
2022-12-15T03:14:24.951Z,18.30
2022-12-15T03:16:51.170Z,19.67
2022-12-15T03:19:18.121Z,17.70
2022-12-15T03:21:44.274Z,18.27
2022-12-15T03:24:10.549Z,18.40
2022-12-15T03:26:36.665Z,19.00
2022-12-15T03:29:03.161Z,19.30
2022-12-15T03:31:29.351Z,19.03
2022-12-15T03:33:55.533Z,18.70
2022-12-15T03:36:22.546Z,19.33
2022-12-15T03:38:48.977Z,19.13
2022-12-15T03:41:17.079Z,20.33
2022-12-15T03:43:43.250Z,18.60
2022-12-15T03:46:09.472Z,18.87
2022-12-15T03:48:35.719Z,19.67
2022-12-15T03:51:01.811Z,19.70
2022-12-15T03:53:28.880Z,19.27
2022-12-15T03:55:55.233Z,19.73
2022-12-15T03:58:21.730Z,22.37
2022-12-15T04:00:48.100Z,21.27
2022-12-15T04:03:14.340Z,20.43
2022-12-15T04:05:40.540Z,21.63
2022-12-15T04:08:06.863Z,22.27
2022-12-15T04:10:35.357Z,22.27
2022-12-15T04:13:03.479Z,20.50
2022-12-15T04:15:29.711Z,21.43
2022-12-15T04:17:56.135Z,20.00
2022-12-15T04:20:22.791Z,21.97
2022-12-15T04:22:51.213Z,20.73
2022-12-15T04:25:38.051Z,22.50
2022-12-15T04:28:23.701Z,21.93
2022-12-15T04:31:10.099Z,14.87
2022-12-15T04:33:55.878Z,23.37
2022-12-15T04:36:40.689Z,22.03
2022-12-15T04:39:25.102Z,21.33
2022-12-15T04:42:10.107Z,22.70
2022-12-15T04:44:55.272Z,22.17
2022-12-15T04:47:39.687Z,23.27
2022-12-15T04:50:24.578Z,23.17
2022-12-15T04:53:09.406Z,23.00
2022-12-15T04:55:54.407Z,22.47
2022-12-15T04:58:38.669Z,23.20
2022-12-15T05:01:23.944Z,24.90
2022-12-15T05:04:08.921Z,24.17
2022-12-15T05:06:53.330Z,25.17
2022-12-15T05:09:37.674Z,26.10
2022-12-15T05:12:22.574Z,24.17
2022-12-15T05:15:06.934Z,24.07
2022-12-15T05:17:52.016Z,25.10
2022-12-15T05:20:36.315Z,25.47
2022-12-15T05:23:20.730Z,25.90
2022-12-15T05:26:05.062Z,25.97
2022-12-15T05:28:49.408Z,24.77
2022-12-15T05:31:33.882Z,23.90
2022-12-15T05:34:05.457Z,24.97
2022-12-15T05:36:32.037Z,24.57
2022-12-15T05:38:58.137Z,23.63
2022-12-15T05:41:24.258Z,22.53
2022-12-15T05:43:50.413Z,25.67
2022-12-15T05:46:16.556Z,23.77
2022-12-15T05:48:42.737Z,25.57
2022-12-15T05:51:11.070Z,24.73
2022-12-15T05:53:38.027Z,27.20
2022-12-15T05:56:05.614Z,26.23
2022-12-15T05:58:31.769Z,27.47
2022-12-15T06:01:03.084Z,25.13
2022-12-15T06:03:29.494Z,26.30
2022-12-15T06:05:56.745Z,25.23
2022-12-15T06:08:23.687Z,27.77
2022-12-15T06:10:52.234Z,25.27
2022-12-15T06:13:19.257Z,23.93
2022-12-15T06:15:54.366Z,25.43
2022-12-15T06:18:20.562Z,22.83
2022-12-15T06:20:46.899Z,25.67
2022-12-15T06:23:15.963Z,24.03
2022-12-15T06:25:42.735Z,22.07
2022-12-15T06:28:08.850Z,22.90
2022-12-15T06:30:35.491Z,21.83
2022-12-15T06:33:01.591Z,19.40
2022-12-15T06:35:27.731Z,19.70
2022-12-15T06:37:53.875Z,20.67
2022-12-15T06:40:20.027Z,19.60
2022-12-15T06:42:46.915Z,18.73
2022-12-15T06:45:13.298Z,17.67
2022-12-15T06:47:39.404Z,18.47
2022-12-15T06:50:07.012Z,19.57
2022-12-15T06:52:33.145Z,18.17
2022-12-15T06:54:59.330Z,18.47
2022-12-15T06:57:25.493Z,19.37
2022-12-15T06:59:52.247Z,19.07
2022-12-15T07:02:21.188Z,16.40
2022-12-15T07:04:50.063Z,19.70
2022-12-15T07:07:16.182Z,19.60
2022-12-15T07:09:42.363Z,19.63
2022-12-15T07:12:09.164Z,20.50
2022-12-15T07:14:35.302Z,21.50
2022-12-15T07:17:02.071Z,19.50
2022-12-15T07:19:29.163Z,20.07
2022-12-15T07:21:56.960Z,21.70
2022-12-15T07:24:23.131Z,20.63
2022-12-15T07:26:49.224Z,19.80
2022-12-15T07:29:21.107Z,19.73
2022-12-15T07:31:49.277Z,20.47
2022-12-15T07:34:16.079Z,20.17
2022-12-15T07:36:47.046Z,22.93
2022-12-15T07:39:16.252Z,21.07
2022-12-15T07:41:42.369Z,17.93
2022-12-15T07:44:09.385Z,18.30
2022-12-15T07:46:35.684Z,18.83
2022-12-15T07:49:01.898Z,19.37
2022-12-15T07:51:28.827Z,18.37
2022-12-15T07:53:54.940Z,18.70
2022-12-15T07:56:21.092Z,19.47
2022-12-15T07:58:47.576Z,18.13
2022-12-15T08:01:14.726Z,21.07
2022-12-15T08:03:41.713Z,20.73
2022-12-15T08:06:10.477Z,21.97
2022-12-15T08:08:37.487Z,21.17
2022-12-15T08:11:04.630Z,21.13
2022-12-15T08:14:01.235Z,19.77
2022-12-15T08:16:16.910Z,22.13
2022-12-15T08:18:43.023Z,21.33
2022-12-15T08:21:09.968Z,21.43
2022-12-15T08:23:37.228Z,22.43
2022-12-15T08:26:05.083Z,22.37
2022-12-15T08:28:31.759Z,23.60
2022-12-15T08:31:02.265Z,23.10
2022-12-15T08:33:28.790Z,23.37
2022-12-15T08:35:57.545Z,23.70
2022-12-15T08:38:23.727Z,24.93
2022-12-15T08:40:50.503Z,24.53
2022-12-15T08:43:16.756Z,23.80
2022-12-15T08:45:43.510Z,23.90
2022-12-15T08:48:09.721Z,25.70
2022-12-15T08:50:35.852Z,24.93
2022-12-15T08:53:29.571Z,22.73
2022-12-15T08:55:48.182Z,24.27
2022-12-15T08:58:15.153Z,25.27
2022-12-15T09:00:41.337Z,26.37
2022-12-15T09:03:07.472Z,25.37
2022-12-15T09:05:34.257Z,27.17
2022-12-15T09:08:06.135Z,26.80
2022-12-15T09:10:32.860Z,28.33
2022-12-15T09:12:59.000Z,28.03
2022-12-15T09:15:45.453Z,27.53
2022-12-15T09:18:12.243Z,27.93
2022-12-15T09:20:38.365Z,28.13
2022-12-15T09:23:04.553Z,27.77
2022-12-15T09:25:30.716Z,27.90
2022-12-15T09:27:56.897Z,25.90
2022-12-15T09:30:23.031Z,26.93
2022-12-15T09:32:50.493Z,28.03
2022-12-15T09:35:16.882Z,27.87
2022-12-15T09:37:45.888Z,26.77
2022-12-15T09:40:16.291Z,25.13
2022-12-15T09:42:44.991Z,27.87
2022-12-15T09:45:17.697Z,27.07
2022-12-15T09:47:47.372Z,27.13
2022-12-15T09:50:15.149Z,27.23
2022-12-15T09:52:47.257Z,28.53
2022-12-15T09:55:19.784Z,29.80
2022-12-15T09:57:49.858Z,28.07
2022-12-15T10:00:20.491Z,29.47
2022-12-15T10:03:15.530Z,28.63
2022-12-15T10:08:41.223Z,27.33
2022-12-15T10:11:19.965Z,29.43
2022-12-15T10:13:51.933Z,29.93
2022-12-15T10:16:22.283Z,31.10
2022-12-15T10:18:59.452Z,31.17
2022-12-15T10:21:30.709Z,29.80
2022-12-15T10:23:59.387Z,30.97
2022-12-15T10:26:26.682Z,30.40
2022-12-15T10:29:05.920Z,30.33
2022-12-15T10:31:34.992Z,31.63
2022-12-15T10:34:10.022Z,30.90
2022-12-15T10:36:36.835Z,30.90
2022-12-15T10:39:03.042Z,30.27
2022-12-15T10:41:32.438Z,30.30
2022-12-15T10:43:58.748Z,29.80
2022-12-15T10:46:26.587Z,31.40
2022-12-15T10:48:56.013Z,30.50
2022-12-15T10:51:26.760Z,34.07
2022-12-15T10:53:57.280Z,31.03
2022-12-15T10:56:32.410Z,32.10
2022-12-15T10:59:01.311Z,31.70
2022-12-15T11:01:29.055Z,33.03
2022-12-15T11:03:56.048Z,32.37
2022-12-15T11:06:24.270Z,33.27
2022-12-15T11:08:51.601Z,32.10
2022-12-15T11:11:50.619Z,33.13
2022-12-15T11:14:19.615Z,32.40
2022-12-15T11:16:51.639Z,31.37
2022-12-15T11:19:28.054Z,31.77
2022-12-15T11:21:59.045Z,33.40
2022-12-15T11:24:32.554Z,33.57
2022-12-15T11:27:04.163Z,31.13
2022-12-15T11:29:46.289Z,31.73
2022-12-15T11:32:18.374Z,33.60
2022-12-15T11:34:45.763Z,33.97
2022-12-15T11:37:37.238Z,34.57
2022-12-15T11:40:35.004Z,32.73
2022-12-15T11:43:12.473Z,33.60
2022-12-15T11:45:43.751Z,33.40
2022-12-15T11:48:12.543Z,32.40
2022-12-15T11:50:43.878Z,30.30
2022-12-15T11:53:18.758Z,33.70
2022-12-15T11:55:51.561Z,32.60
2022-12-15T11:58:36.496Z,32.97
2022-12-15T12:01:10.295Z,33.43
2022-12-15T12:03:47.328Z,34.23
2022-12-15T12:06:16.931Z,32.40
2022-12-15T12:08:54.811Z,34.20
2022-12-15T12:11:27.107Z,32.73
2022-12-15T12:14:11.888Z,32.70
2022-12-15T12:16:44.045Z,29.93
2022-12-15T12:19:11.413Z,30.33
2022-12-15T12:21:40.572Z,29.23
2022-12-15T12:24:12.836Z,30.73
2022-12-15T12:26:41.911Z,32.03
2022-12-15T12:29:15.290Z,34.57
2022-12-15T12:31:50.764Z,33.03
2022-12-15T12:34:19.571Z,33.07
2022-12-15T12:36:48.960Z,32.20
2022-12-15T12:39:18.330Z,31.03
2022-12-15T12:41:48.525Z,30.20
2022-12-15T12:44:24.474Z,29.60
2022-12-15T12:46:52.580Z,30.67
2022-12-15T12:49:27.302Z,30.47
2022-12-15T12:51:54.876Z,28.60
2022-12-15T12:54:42.993Z,29.10
2022-12-15T12:57:38.133Z,28.37
2022-12-15T13:00:17.870Z,27.33
2022-12-15T13:03:17.000Z,28.17
2022-12-15T13:05:45.147Z,26.50
2022-12-15T13:08:51.373Z,27.50
2022-12-15T13:11:54.472Z,27.00
2022-12-15T13:14:27.537Z,29.63
2022-12-15T13:17:24.877Z,27.03
2022-12-15T13:20:10.144Z,27.70
2022-12-15T13:22:38.320Z,27.23
2022-12-15T13:25:26.736Z,28.43
2022-12-15T13:28:01.508Z,26.70
2022-12-15T13:30:27.833Z,28.00
2022-12-15T13:33:13.655Z,27.30
2022-12-15T13:35:40.734Z,28.50
2022-12-15T13:38:16.452Z,28.50
2022-12-15T13:40:53.282Z,27.60
2022-12-15T13:43:39.898Z,27.47
2022-12-15T13:46:11.343Z,27.43
2022-12-15T13:48:40.539Z,27.97
2022-12-15T13:51:24.127Z,27.90
2022-12-15T13:53:55.372Z,28.23
2022-12-15T13:56:47.574Z,29.37
2022-12-15T13:59:22.628Z,28.40
2022-12-15T14:01:51.100Z,27.57
2022-12-15T14:04:18.964Z,25.87
2022-12-15T14:06:47.863Z,27.37
2022-12-15T14:09:26.936Z,26.70
2022-12-15T14:11:54.295Z,28.80
2022-12-15T14:14:23.787Z,28.40
2022-12-15T14:16:56.038Z,27.63
2022-12-15T14:19:22.958Z,27.33
2022-12-15T14:21:50.806Z,27.67
2022-12-15T14:24:41.775Z,27.50
2022-12-15T14:27:07.945Z,26.83
2022-12-15T14:29:34.076Z,27.57
2022-12-15T14:32:00.627Z,29.00
2022-12-15T14:34:29.963Z,29.77
2022-12-15T14:36:58.035Z,31.50
2022-12-15T14:39:28.648Z,29.93
2022-12-15T14:41:56.394Z,28.77
2022-12-15T14:44:38.403Z,29.13
2022-12-15T14:47:06.765Z,29.87
2022-12-15T14:49:39.323Z,29.27
2022-12-15T14:52:05.976Z,30.40
2022-12-15T14:54:35.444Z,29.23
2022-12-15T14:57:03.438Z,29.67
2022-12-15T14:59:32.635Z,29.17
2022-12-15T15:02:06.280Z,28.30
2022-12-15T15:04:34.225Z,28.90
2022-12-15T15:07:02.092Z,28.70
2022-12-15T15:09:30.478Z,30.20
2022-12-15T15:12:00.267Z,29.17
2022-12-15T15:14:28.214Z,29.00
2022-12-15T15:17:03.894Z,29.87
2022-12-15T15:19:32.470Z,29.27
2022-12-15T15:22:01.515Z,29.10
2022-12-15T15:24:34.495Z,30.60
2022-12-15T15:27:26.528Z,30.97
2022-12-15T15:29:53.036Z,30.37
2022-12-15T15:32:20.400Z,28.83
2022-12-15T15:34:46.938Z,29.87
2022-12-15T15:37:18.277Z,27.70
2022-12-15T15:39:44.911Z,28.57
2022-12-15T15:42:11.830Z,29.00
2022-12-15T15:44:37.972Z,28.67
2022-12-15T15:47:04.391Z,29.60
2022-12-15T15:49:34.630Z,27.80
2022-12-15T15:52:04.509Z,27.97
2022-12-15T15:54:34.309Z,28.80
2022-12-15T15:57:00.455Z,28.60
2022-12-15T15:59:28.143Z,27.77
2022-12-15T16:01:55.453Z,26.07
2022-12-15T16:04:21.903Z,28.03
2022-12-15T16:06:48.868Z,27.07
2022-12-15T16:09:15.970Z,26.87
2022-12-15T16:11:44.149Z,25.67
2022-12-15T16:14:11.820Z,28.73
2022-12-15T16:16:37.952Z,29.17
2022-12-15T16:19:04.097Z,30.97
2022-12-15T16:21:30.242Z,29.73
2022-12-15T16:23:56.866Z,29.70
2022-12-15T16:26:26.797Z,34.77
2022-12-15T16:28:53.687Z,32.00
2022-12-15T16:31:28.426Z,33.20
2022-12-15T16:33:54.712Z,31.87
2022-12-15T16:36:21.044Z,31.57
2022-12-15T16:38:47.331Z,32.73
2022-12-15T16:41:16.201Z,32.27
2022-12-15T16:43:47.756Z,35.23
2022-12-15T16:46:15.791Z,32.13
2022-12-15T16:48:42.516Z,33.77
2022-12-15T16:51:18.073Z,40.60
2022-12-15T16:53:44.894Z,49.83
2022-12-15T16:56:13.915Z,36.00
2022-12-15T16:58:40.108Z,38.93
2022-12-15T17:01:06.254Z,38.67
2022-12-15T17:03:33.365Z,33.83
2022-12-15T17:06:01.802Z,32.27
2022-12-15T17:08:33.188Z,30.60
2022-12-15T17:10:59.731Z,28.57
2022-12-15T17:13:36.499Z,26.63
2022-12-15T17:16:06.437Z,26.57
2022-12-15T17:18:33.872Z,26.53
2022-12-15T17:21:02.312Z,26.77
2022-12-15T17:23:28.716Z,26.80
2022-12-15T17:26:22.725Z,28.67
2022-12-15T17:28:44.732Z,28.70
2022-12-15T17:31:16.280Z,27.87
2022-12-15T17:33:43.073Z,28.90
2022-12-15T17:36:14.779Z,28.47
2022-12-15T17:38:40.932Z,30.83
2022-12-15T17:41:19.196Z,30.87
2022-12-15T17:44:24.194Z,33.23
2022-12-15T17:46:42.275Z,32.40
2022-12-15T17:49:09.100Z,30.83
2022-12-15T17:51:35.260Z,32.30
2022-12-15T17:54:01.770Z,32.70
2022-12-15T17:56:28.056Z,31.17
2022-12-15T17:58:54.195Z,32.17
2022-12-15T18:01:20.477Z,32.20
2022-12-15T18:03:46.778Z,32.00
2022-12-15T18:06:14.611Z,36.03
2022-12-15T18:08:41.439Z,35.67
2022-12-15T18:11:13.908Z,35.87
2022-12-15T18:13:40.364Z,33.93
2022-12-15T18:16:07.129Z,35.17
2022-12-15T18:18:34.179Z,41.77
2022-12-15T18:21:05.203Z,41.03
2022-12-15T18:23:32.390Z,35.93
2022-12-15T18:26:02.866Z,36.97
2022-12-15T18:28:30.603Z,38.87
2022-12-15T18:30:59.871Z,38.17
2022-12-15T18:33:28.194Z,36.63
2022-12-15T18:35:55.555Z,35.37
2022-12-15T18:38:23.495Z,32.03
2022-12-15T18:40:51.653Z,31.37
2022-12-15T18:43:19.845Z,32.87
2022-12-15T18:45:46.776Z,30.37
2022-12-15T18:48:16.302Z,32.90
2022-12-15T18:50:42.452Z,32.67
2022-12-15T18:53:14.891Z,31.50
2022-12-15T18:55:41.141Z,31.23
2022-12-15T18:58:17.846Z,30.07
2022-12-15T19:00:44.298Z,32.53
2022-12-15T19:03:10.489Z,31.67
2022-12-15T19:05:36.928Z,30.83
2022-12-15T19:08:09.266Z,32.40
2022-12-15T19:10:37.285Z,32.87
2022-12-15T19:13:03.481Z,33.93
2022-12-15T19:15:31.777Z,33.37
2022-12-15T19:18:16.323Z,33.87
2022-12-15T19:21:01.201Z,34.37
2022-12-15T19:23:27.504Z,33.17
2022-12-15T19:25:53.954Z,35.37
2022-12-15T19:28:21.845Z,33.83
2022-12-15T19:30:49.673Z,33.27
2022-12-15T19:33:16.755Z,34.07
2022-12-15T19:35:44.757Z,31.30
2022-12-15T19:38:19.029Z,27.00
2022-12-15T19:40:46.747Z,29.93
2022-12-15T19:43:14.859Z,29.20
2022-12-15T19:45:41.116Z,27.83
2022-12-15T19:48:09.743Z,27.83
2022-12-15T19:50:36.874Z,28.63
2022-12-15T19:53:05.946Z,28.83
2022-12-15T19:55:33.888Z,28.63
2022-12-15T19:58:00.560Z,29.70
2022-12-15T20:00:26.816Z,31.23
2022-12-15T20:02:54.176Z,30.27
2022-12-15T20:05:21.544Z,34.23
2022-12-15T20:07:48.081Z,36.97
2022-12-15T20:10:24.363Z,38.73
2022-12-15T20:12:53.961Z,41.70
2022-12-15T20:15:21.818Z,35.60
2022-12-15T20:17:49.804Z,34.63
2022-12-15T20:20:18.012Z,28.87
2022-12-15T20:22:46.345Z,28.27
2022-12-15T20:25:16.086Z,27.57
2022-12-15T20:27:42.614Z,27.07
2022-12-15T20:30:17.053Z,25.77
2022-12-15T20:32:43.271Z,25.93
2022-12-15T20:35:09.579Z,27.67
2022-12-15T20:37:35.958Z,25.73
2022-12-15T20:40:03.071Z,26.80
2022-12-15T20:42:29.287Z,26.00
2022-12-15T20:44:55.559Z,25.07
2022-12-15T20:47:24.183Z,26.30
2022-12-15T20:49:51.899Z,25.00
2022-12-15T20:52:19.886Z,15.90
2022-12-15T20:54:46.378Z,33.90
2022-12-15T20:57:13.348Z,26.70
2022-12-15T20:59:39.637Z,26.10
2022-12-15T21:02:16.066Z,25.67
2022-12-15T21:04:42.524Z,25.80
2022-12-15T21:07:09.426Z,25.80
2022-12-15T21:09:35.621Z,25.33
2022-12-15T21:12:07.356Z,24.30
2022-12-15T21:14:36.154Z,28.20
2022-12-15T21:17:02.584Z,26.13
2022-12-15T21:19:29.550Z,26.53
2022-12-15T21:21:56.189Z,26.43
2022-12-15T21:24:25.053Z,26.27
2022-12-15T21:26:51.738Z,26.53
2022-12-15T21:29:22.100Z,24.83
2022-12-15T21:31:49.615Z,25.20
2022-12-15T21:34:16.221Z,29.20
2022-12-15T21:36:44.622Z,29.47
2022-12-15T21:39:12.797Z,31.13
2022-12-15T21:41:39.944Z,28.50
2022-12-15T21:44:11.880Z,29.67
2022-12-15T21:46:38.123Z,29.17
2022-12-15T21:49:13.704Z,28.47
2022-12-15T21:51:41.139Z,29.57
2022-12-15T21:54:15.145Z,28.60
2022-12-15T21:56:41.279Z,28.80
2022-12-15T21:59:11.728Z,29.17
2022-12-15T22:01:38.019Z,28.00
2022-12-15T22:04:11.450Z,25.97
2022-12-15T22:06:38.025Z,26.80
2022-12-15T22:09:04.464Z,27.23
2022-12-15T22:11:31.380Z,27.60
2022-12-15T22:14:01.505Z,27.67
2022-12-15T22:16:29.053Z,27.43
2022-12-15T22:18:57.103Z,25.60
2022-12-15T22:21:24.884Z,28.60
2022-12-15T22:23:51.085Z,27.70
2022-12-15T22:26:20.784Z,29.17
2022-12-15T22:28:47.089Z,28.47
2022-12-15T22:31:13.308Z,28.53
2022-12-15T22:33:39.736Z,26.90
2022-12-15T22:36:06.760Z,26.40
2022-12-15T22:38:34.032Z,27.07
2022-12-15T22:41:01.037Z,26.70
2022-12-15T22:43:32.603Z,25.57
2022-12-15T22:45:59.967Z,26.63
2022-12-15T22:48:29.604Z,27.17
2022-12-15T22:50:55.951Z,26.33
2022-12-15T22:53:23.284Z,25.97
2022-12-15T22:55:50.529Z,26.63
2022-12-15T22:58:23.319Z,27.07
2022-12-15T23:00:51.104Z,25.97
2022-12-15T23:03:18.656Z,26.00
2022-12-15T23:05:44.798Z,26.03
2022-12-15T23:08:10.912Z,24.30
2022-12-15T23:10:55.451Z,24.47
2022-12-15T23:13:22.280Z,25.20
2022-12-15T23:16:08.053Z,26.27
2022-12-15T23:18:36.826Z,25.17
2022-12-15T23:21:03.110Z,25.70
2022-12-15T23:23:31.439Z,26.53
2022-12-15T23:25:58.043Z,26.27
2022-12-15T23:28:25.057Z,26.10
2022-12-15T23:30:52.253Z,24.03
2022-12-15T23:33:18.710Z,25.10
2022-12-15T23:35:45.228Z,25.80
2022-12-15T23:38:11.658Z,25.77
2022-12-15T23:40:37.931Z,25.30
2022-12-15T23:43:04.184Z,26.27
2022-12-15T23:45:30.916Z,25.40
2022-12-15T23:47:57.047Z,25.77
2022-12-15T23:50:23.429Z,25.23
2022-12-15T23:52:51.979Z,26.33
2022-12-15T23:55:18.385Z,25.93
2022-12-15T23:57:44.533Z,26.93
